Time;durP1;ratioP1;P1;durP2;ratioP2;P2;SDS_P1;SDS_P2;PMS_P1;PMS_P2;Temp;Humidity;BMP_temperature;BMP_pressure;BME280_temperature;BME280_humidity;BME280_pressure;Samples;Min_cycle;Max_cycle;Signal;HPM_P1;HPM_P2
2022/01/13 00:01:37;;;;;;;87.43;29.42;;;6.20;99.90;;;;;;5115443;28;20495;-69
2022/01/13 00:04:03;;;;;;;76.35;27.77;;;6.20;99.90;;;;;;5117511;28;20122;-69
2022/01/13 00:06:29;;;;;;;87.03;26.42;;;6.30;99.90;;;;;;5115779;28;20118;-69
2022/01/13 00:08:54;;;;;;;84.63;27.10;;;6.20;99.90;;;;;;5117800;28;20035;-69
2022/01/13 00:11:20;;;;;;;86.35;29.80;;;6.20;99.90;;;;;;5117639;27;20043;-69
2022/01/13 00:14:10;;;;;;;84.38;29.20;;;6.20;99.90;;;;;;5117203;28;20498;-69
2022/01/13 00:21:41;;;;;;;86.95;28.00;;;6.20;99.90;;;;;;5116153;28;20059;-69
2022/01/13 00:24:11;;;;;;;93.25;29.75;;;6.20;99.90;;;;;;5117066;28;20044;-69
2022/01/13 00:26:37;;;;;;;89.70;27.15;;;6.10;99.90;;;;;;5115513;28;20110;-69
2022/01/13 00:29:03;;;;;;;92.90;27.63;;;6.20;99.90;;;;;;5117243;28;20157;-69
2022/01/13 00:31:33;;;;;;;90.45;30.33;;;6.20;99.90;;;;;;5117057;28;20027;-69
2022/01/13 00:34:02;;;;;;;86.97;28.70;;;6.20;99.90;;;;;;5116009;28;20498;-69
2022/01/13 00:36:30;;;;;;;90.80;29.95;;;6.20;99.90;;;;;;5115295;28;20123;-69
2022/01/13 00:38:57;;;;;;;86.90;26.25;;;6.20;99.90;;;;;;5116650;28;20376;-69
2022/01/13 00:41:27;;;;;;;104.70;29.83;;;6.10;99.90;;;;;;5115420;28;20052;-69
2022/01/13 00:43:54;;;;;;;114.80;32.50;;;6.10;99.90;;;;;;5115508;28;20043;-69
2022/01/13 00:46:22;;;;;;;112.47;32.75;;;6.10;99.90;;;;;;5116319;28;20036;-68
2022/01/13 00:48:51;;;;;;;102.55;33.55;;;6.10;99.90;;;;;;5116781;28;20031;-69
2022/01/13 00:51:17;;;;;;;103.35;34.10;;;6.10;99.90;;;;;;5116807;28;20031;-69
2022/01/13 00:53:43;;;;;;;109.80;36.47;;;6.10;99.90;;;;;;5116577;28;20407;-69
2022/01/13 00:56:08;;;;;;;102.88;33.80;;;6.00;99.90;;;;;;5114887;28;20044;-69
2022/01/13 00:58:35;;;;;;;108.03;35.17;;;6.10;99.90;;;;;;5111311;28;20423;-70
2022/01/13 01:01:04;;;;;;;104.72;33.45;;;6.10;99.90;;;;;;5102959;28;20531;-69
2022/01/13 01:03:30;;;;;;;107.05;34.75;;;6.00;99.90;;;;;;5100702;28;20066;-70
2022/01/13 01:05:57;;;;;;;94.25;33.20;;;6.00;99.90;;;;;;5106882;28;20088;-69
2022/01/13 01:08:24;;;;;;;93.43;30.48;;;6.00;99.90;;;;;;5114919;28;20032;-69
2022/01/13 01:10:53;;;;;;;83.07;29.33;;;6.00;99.90;;;;;;5115911;28;20044;-69
2022/01/13 01:13:22;;;;;;;93.05;29.23;;;5.90;99.90;;;;;;5114848;28;20433;-69
2022/01/13 01:15:53;;;;;;;89.88;29.92;;;5.90;99.90;;;;;;5114615;28;20050;-69
2022/01/13 01:23:54;;;;;;;77.60;27.05;;;5.90;99.90;;;;;;5116371;28;20070;-69
2022/01/13 01:26:56;;;;;;;80.80;27.30;;;5.80;99.90;;;;;;5115933;28;20043;-69
2022/01/13 01:31:48;;;;;;;71.60;26.27;;;5.80;99.90;;;;;;5115141;28;20074;-69
2022/01/13 01:37:00;;;;;;;80.90;27.40;;;5.80;99.90;;;;;;5114063;28;20047;-69
2022/01/13 01:39:26;;;;;;;84.88;27.42;;;5.80;99.90;;;;;;5115803;28;20139;-69
2022/01/13 01:41:54;;;;;;;81.85;26.98;;;5.90;99.90;;;;;;5114346;28;20039;-69
2022/01/13 01:44:36;;;;;;;74.25;27.20;;;5.80;99.90;;;;;;5115432;28;20042;-69
2022/01/13 01:47:03;;;;;;;75.15;27.05;;;5.90;99.90;;;;;;5115426;28;20047;-69
2022/01/13 01:49:31;;;;;;;76.38;25.08;;;5.80;99.90;;;;;;5114327;28;20039;-69
2022/01/13 01:51:59;;;;;;;69.85;25.05;;;5.90;99.90;;;;;;5115564;28;20046;-69
2022/01/13 01:54:27;;;;;;;74.72;26.63;;;5.90;99.90;;;;;;5114053;28;20387;-69
2022/01/13 01:56:53;;;;;;;83.75;27.55;;;6.00;99.90;;;;;;5115054;28;20101;-69
2022/01/13 01:59:23;;;;;;;77.78;25.98;;;5.90;99.90;;;;;;5115034;28;20047;-68
2022/01/13 02:01:50;;;;;;;84.10;27.90;;;5.90;99.90;;;;;;5114215;28;20118;-69
2022/01/13 02:04:17;;;;;;;79.18;27.52;;;5.90;99.90;;;;;;5113811;28;20071;-69
2022/01/13 02:06:44;;;;;;;81.72;27.67;;;5.90;99.90;;;;;;5114801;28;20036;-69
2022/01/13 02:09:11;;;;;;;90.85;28.95;;;5.90;99.90;;;;;;5113846;28;20054;-68
2022/01/13 02:11:47;;;;;;;77.78;28.83;;;5.90;99.90;;;;;;5114164;28;20039;-68
2022/01/13 02:16:51;;;;;;;79.95;27.38;;;5.90;99.90;;;;;;5113425;28;20059;-69
2022/01/13 02:19:17;;;;;;;75.55;26.15;;;5.70;99.90;;;;;;5114732;28;20506;-68
2022/01/13 02:21:43;;;;;;;71.95;25.88;;;5.80;99.90;;;;;;5113757;28;20122;-69
2022/01/13 02:24:09;;;;;;;68.40;25.33;;;5.80;99.90;;;;;;5114133;28;20131;-69
2022/01/13 02:26:35;;;;;;;70.45;24.75;;;5.80;99.90;;;;;;5114308;28;20407;-69
2022/01/13 02:29:01;;;;;;;74.72;26.35;;;5.70;99.90;;;;;;5114942;28;20046;-69
2022/01/13 02:31:27;;;;;;;73.05;24.23;;;5.70;99.90;;;;;;5114945;28;20365;-69
2022/01/13 02:33:54;;;;;;;79.22;27.42;;;5.70;99.90;;;;;;5114560;28;20407;-69
2022/01/13 02:36:22;;;;;;;74.10;26.08;;;5.70;99.90;;;;;;5114398;28;20031;-69
2022/01/13 02:38:53;;;;;;;66.85;25.88;;;5.80;99.90;;;;;;5114462;28;20040;-69
2022/01/13 02:41:19;;;;;;;75.72;25.75;;;5.70;99.90;;;;;;5114576;28;20039;-69
2022/01/13 02:43:46;;;;;;;69.95;26.77;;;5.70;99.90;;;;;;5113658;27;20549;-68
2022/01/13 02:46:30;;;;;;;75.55;26.38;;;5.70;99.90;;;;;;5111478;28;20452;-68
2022/01/13 02:48:55;;;;;;;72.00;25.00;;;5.70;99.90;;;;;;5111646;28;20070;-69
2022/01/13 02:51:21;;;;;;;80.20;26.42;;;5.70;99.90;;;;;;5112688;28;20471;-69
2022/01/13 02:53:46;;;;;;;73.25;26.42;;;5.70;99.90;;;;;;5114443;28;20046;-69
2022/01/13 02:56:12;;;;;;;69.18;26.35;;;5.70;99.90;;;;;;5113981;28;20036;-69
2022/01/13 02:58:37;;;;;;;61.60;24.58;;;5.70;99.90;;;;;;5112841;28;20043;-69
2022/01/13 03:01:05;;;;;;;69.63;26.67;;;5.70;99.90;;;;;;5113460;28;20043;-69
2022/01/13 03:03:33;;;;;;;75.78;26.67;;;5.70;99.90;;;;;;5112830;28;20046;-69
2022/01/13 03:06:05;;;;;;;67.80;25.98;;;5.70;99.90;;;;;;5112989;28;20407;-69
2022/01/13 03:08:31;;;;;;;64.72;24.80;;;5.70;99.90;;;;;;5114190;27;20487;-69
2022/01/13 03:10:57;;;;;;;61.75;23.33;;;5.80;99.90;;;;;;5114716;28;20081;-69
2022/01/13 03:13:23;;;;;;;62.78;25.38;;;5.70;99.90;;;;;;5112913;28;20403;-69
2022/01/13 03:15:49;;;;;;;78.38;28.05;;;5.80;99.90;;;;;;5113689;28;20377;-69
2022/01/13 03:18:14;;;;;;;63.65;24.33;;;5.70;99.90;;;;;;5113907;28;20069;-68
2022/01/13 03:20:40;;;;;;;61.08;24.73;;;5.70;99.90;;;;;;5113910;28;20114;-69
2022/01/13 03:23:06;;;;;;;65.97;25.30;;;5.70;99.90;;;;;;5112629;28;20046;-69
2022/01/13 03:25:32;;;;;;;75.88;26.08;;;5.80;99.90;;;;;;5113876;28;20043;-68
2022/01/13 03:28:05;;;;;;;76.72;26.08;;;5.70;99.90;;;;;;5112675;28;20133;-69
2022/01/13 03:30:32;;;;;;;78.07;26.30;;;5.80;99.90;;;;;;5114183;28;20050;-69
2022/01/13 03:32:57;;;;;;;76.53;26.33;;;5.80;99.90;;;;;;5114252;28;20043;-69
2022/01/13 03:35:23;;;;;;;75.13;26.60;;;5.80;99.90;;;;;;5113877;28;20036;-69
2022/01/13 03:37:49;;;;;;;72.22;26.27;;;5.80;99.90;;;;;;5112064;28;20062;-69
2022/01/13 03:40:14;;;;;;;76.97;27.52;;;5.80;99.90;;;;;;5114389;28;20128;-69
2022/01/13 03:42:40;;;;;;;77.32;26.48;;;5.80;99.90;;;;;;5113868;28;20066;-69
2022/01/13 03:45:06;;;;;;;78.00;28.05;;;5.90;99.90;;;;;;5113682;28;20039;-69
2022/01/13 03:47:32;;;;;;;80.03;26.95;;;5.80;99.90;;;;;;5111996;28;20047;-69
2022/01/13 03:49:57;;;;;;;87.97;28.92;;;5.80;99.90;;;;;;5113821;28;20096;-69
2022/01/13 03:52:26;;;;;;;74.97;26.10;;;5.90;99.90;;;;;;5095697;28;20353;-69
2022/01/13 03:55:03;;;;;;;70.75;24.98;;;5.90;99.90;;;;;;5112626;28;20123;-69
2022/01/13 03:58:13;;;;;;;81.60;28.10;;;5.90;99.90;;;;;;5112336;28;20042;-69
2022/01/13 04:01:02;;;;;;;78.65;27.10;;;5.80;99.90;;;;;;5113041;28;20043;-69
2022/01/13 04:03:27;;;;;;;76.20;26.00;;;5.80;99.90;;;;;;5112900;28;20046;-69
2022/01/13 04:06:11;;;;;;;74.00;26.45;;;5.80;99.90;;;;;;5112678;28;20036;-69
2022/01/13 04:08:37;;;;;;;70.63;24.95;;;5.70;99.90;;;;;;5095519;28;20035;-69
2022/01/13 04:11:06;;;;;;;77.90;26.38;;;5.70;99.90;;;;;;5095186;28;20043;-69
2022/01/13 04:13:53;;;;;;;71.65;26.35;;;5.70;99.90;;;;;;5112689;28;20056;-69
2022/01/13 04:16:22;;;;;;;64.43;24.85;;;5.70;99.90;;;;;;5113161;28;20047;-69
2022/01/13 04:18:49;;;;;;;69.55;26.15;;;5.70;99.90;;;;;;5113393;28;20040;-69
2022/01/13 04:21:17;;;;;;;72.60;26.08;;;5.70;99.90;;;;;;5113477;28;20044;-69
2022/01/13 04:23:43;;;;;;;66.15;24.65;;;5.80;99.90;;;;;;5112061;28;20051;-69
2022/01/13 04:26:09;;;;;;;68.68;26.05;;;5.70;99.90;;;;;;5113083;28;20031;-69
2022/01/13 04:28:36;;;;;;;75.13;27.65;;;5.70;99.90;;;;;;5112224;28;20039;-69
2022/01/13 04:31:02;;;;;;;75.13;25.75;;;5.70;99.90;;;;;;5112289;28;20051;-69
2022/01/13 04:33:30;;;;;;;79.28;26.95;;;5.70;99.90;;;;;;5111931;28;20046;-69
2022/01/13 04:35:56;;;;;;;82.93;28.13;;;5.80;99.90;;;;;;5112982;28;20088;-69
2022/01/13 04:38:22;;;;;;;82.38;27.35;;;5.80;99.90;;;;;;5113265;28;20399;-69
2022/01/13 04:40:54;;;;;;;88.93;30.27;;;5.80;99.90;;;;;;5110441;28;20035;-70
2022/01/13 04:43:21;;;;;;;84.65;28.75;;;5.70;99.90;;;;;;5074167;28;20044;-69
2022/01/13 04:45:47;;;;;;;89.72;31.30;;;5.80;99.90;;;;;;5093239;28;20044;-69
2022/01/13 04:48:14;;;;;;;88.35;28.90;;;5.80;99.90;;;;;;5096689;28;20036;-69
2022/01/13 04:50:40;;;;;;;73.13;28.60;;;5.70;99.90;;;;;;5096198;28;20085;-69
2022/01/13 04:53:07;;;;;;;86.45;29.02;;;5.70;99.90;;;;;;5095385;28;20065;-69
2022/01/13 04:55:35;;;;;;;82.85;27.13;;;5.80;99.90;;;;;;5094856;28;20122;-68
2022/01/13 04:58:01;;;;;;;83.00;28.17;;;5.70;99.90;;;;;;5096031;28;20047;-68
2022/01/13 05:00:29;;;;;;;89.68;30.98;;;5.70;99.90;;;;;;5094350;28;20054;-68
2022/01/13 05:02:55;;;;;;;67.88;29.10;;;5.70;99.90;;;;;;5096384;28;20036;-68
2022/01/13 05:05:21;;;;;;;92.28;31.02;;;5.80;99.90;;;;;;5096050;28;20036;-68
2022/01/13 05:07:48;;;;;;;72.55;27.77;;;5.70;99.90;;;;;;5094311;28;20115;-68
2022/01/13 05:10:13;;;;;;;76.50;28.10;;;5.70;99.90;;;;;;5100298;28;20466;-68
2022/01/13 05:12:44;;;;;;;86.60;29.58;;;5.70;99.90;;;;;;5116057;28;20079;-69
2022/01/13 05:15:20;;;;;;;71.70;27.35;;;5.70;99.90;;;;;;5116405;28;20043;-68
2022/01/13 05:18:03;;;;;;;92.95;29.02;;;5.70;99.90;;;;;;5115915;28;20043;-68
2022/01/13 05:20:39;;;;;;;86.90;27.85;;;5.60;99.90;;;;;;5115957;28;20096;-68
2022/01/13 05:23:06;;;;;;;86.65;30.42;;;5.70;99.90;;;;;;5116314;28;20047;-68
2022/01/13 05:25:32;;;;;;;72.85;27.50;;;5.60;99.90;;;;;;5115475;28;20036;-69
2022/01/13 05:27:58;;;;;;;73.05;27.13;;;5.70;99.90;;;;;;5114818;28;20085;-68
2022/01/13 05:30:23;;;;;;;75.20;27.90;;;5.60;99.90;;;;;;5116161;28;20040;-68
2022/01/13 05:32:49;;;;;;;76.55;27.02;;;5.70;99.90;;;;;;5114227;28;20399;-68
2022/01/13 05:35:15;;;;;;;85.95;28.35;;;5.60;99.90;;;;;;5115701;28;20040;-68
2022/01/13 05:37:42;;;;;;;76.15;27.55;;;5.70;99.90;;;;;;5113427;28;20146;-68
2022/01/13 05:40:10;;;;;;;83.35;26.60;;;5.60;99.90;;;;;;5116097;28;20049;-69
2022/01/13 05:42:35;;;;;;;76.45;28.23;;;5.70;99.90;;;;;;5114232;28;20048;-68
2022/01/13 05:45:06;;;;;;;78.60;27.63;;;5.70;99.90;;;;;;5114467;28;20096;-68
2022/01/13 05:47:32;;;;;;;84.60;28.55;;;5.70;99.90;;;;;;5113865;28;20380;-68
2022/01/13 05:49:57;;;;;;;75.43;25.17;;;5.70;99.90;;;;;;5115904;28;20039;-68
2022/01/13 05:52:23;;;;;;;78.82;28.20;;;5.70;99.90;;;;;;5115325;28;20495;-68
2022/01/13 05:54:49;;;;;;;75.50;27.55;;;5.70;99.90;;;;;;5114118;28;20047;-69
2022/01/13 05:57:14;;;;;;;99.57;31.50;;;5.60;99.90;;;;;;5113557;28;20044;-68
2022/01/13 05:59:40;;;;;;;79.65;29.65;;;5.70;99.90;;;;;;5115508;28;20043;-68
2022/01/13 06:02:06;;;;;;;78.20;27.58;;;5.70;99.90;;;;;;5115172;28;20070;-68
2022/01/13 06:04:31;;;;;;;88.40;28.75;;;5.70;99.90;;;;;;5113966;28;20058;-68
2022/01/13 06:06:57;;;;;;;84.80;28.38;;;5.70;99.90;;;;;;5114768;28;20563;-68
2022/01/13 06:09:22;;;;;;;75.68;28.08;;;5.70;99.90;;;;;;5096687;28;20043;-69
2022/01/13 06:11:56;;;;;;;83.95;28.23;;;5.70;99.90;;;;;;5114717;28;20035;-68
2022/01/13 06:14:22;;;;;;;98.20;30.67;;;5.70;99.90;;;;;;5114901;28;20491;-68
2022/01/13 06:16:47;;;;;;;82.88;27.95;;;5.70;99.90;;;;;;5114590;28;20046;-68
2022/01/13 06:19:13;;;;;;;96.38;28.77;;;5.80;99.90;;;;;;5114793;28;20067;-68
2022/01/13 06:21:39;;;;;;;74.72;27.10;;;5.70;99.90;;;;;;5114394;28;20035;-68
2022/01/13 06:24:04;;;;;;;108.75;33.38;;;5.80;99.90;;;;;;5115039;28;20402;-69
2022/01/13 06:26:30;;;;;;;96.03;29.50;;;5.80;99.90;;;;;;5114778;28;20084;-69
2022/01/13 06:28:56;;;;;;;94.20;29.42;;;5.80;99.90;;;;;;5115149;27;20083;-68
2022/01/13 06:31:21;;;;;;;106.15;30.40;;;5.80;99.90;;;;;;5113518;28;20074;-68
2022/01/13 06:33:47;;;;;;;108.97;31.92;;;5.80;99.90;;;;;;5113827;28;20039;-68
2022/01/13 06:36:12;;;;;;;105.47;33.13;;;5.80;99.90;;;;;;5114454;28;20046;-68
2022/01/13 06:38:38;;;;;;;94.00;29.05;;;5.80;99.90;;;;;;5114303;28;20089;-68
2022/01/13 06:41:04;;;;;;;107.65;31.88;;;5.80;99.90;;;;;;5096496;28;20044;-68
2022/01/13 06:43:29;;;;;;;120.60;32.35;;;5.80;99.90;;;;;;5112744;28;20376;-68
2022/01/13 06:45:55;;;;;;;110.15;33.88;;;5.80;99.90;;;;;;5113905;28;20457;-68
2022/01/13 06:48:21;;;;;;;104.53;31.80;;;5.90;99.90;;;;;;5114295;28;20032;-68
2022/01/13 06:50:46;;;;;;;111.95;31.65;;;5.90;99.90;;;;;;5114266;28;20042;-69
2022/01/13 06:53:12;;;;;;;114.57;34.03;;;5.90;99.90;;;;;;5112581;28;20046;-69
2022/01/13 06:55:37;;;;;;;133.27;35.50;;;5.90;99.90;;;;;;5113957;28;20035;-68
2022/01/13 06:58:04;;;;;;;131.20;34.05;;;6.00;99.90;;;;;;5112819;28;20491;-68
2022/01/13 07:00:29;;;;;;;95.93;31.50;;;5.90;99.90;;;;;;5112857;28;20035;-69
2022/01/13 07:02:58;;;;;;;118.70;34.38;;;5.90;99.90;;;;;;5112644;28;20127;-68
2022/01/13 07:05:24;;;;;;;107.20;32.72;;;5.90;99.90;;;;;;5114308;28;20547;-68
2022/01/13 07:07:50;;;;;;;110.10;35.00;;;6.00;99.90;;;;;;5114073;28;20070;-68
2022/01/13 07:10:16;;;;;;;115.47;36.03;;;6.00;99.90;;;;;;5113956;28;20078;-69
2022/01/13 07:12:42;;;;;;;124.70;34.20;;;6.00;99.90;;;;;;5112345;28;20122;-68
2022/01/13 07:15:09;;;;;;;124.10;34.03;;;6.00;99.90;;;;;;5114395;28;20542;-68
2022/01/13 07:17:35;;;;;;;123.22;34.92;;;6.00;99.90;;;;;;5113824;28;20123;-68
2022/01/13 07:20:02;;;;;;;117.78;35.10;;;6.00;99.90;;;;;;5113862;28;20071;-69
2022/01/13 07:22:27;;;;;;;120.63;34.28;;;6.10;99.90;;;;;;5113809;28;20043;-68
2022/01/13 07:24:53;;;;;;;128.25;36.25;;;6.00;99.90;;;;;;5113814;28;20036;-68
2022/01/13 07:27:19;;;;;;;128.40;35.35;;;6.10;99.90;;;;;;5113713;28;20119;-69
2022/01/13 07:29:45;;;;;;;110.15;33.17;;;6.10;99.90;;;;;;5112932;28;20045;-69
2022/01/13 07:32:11;;;;;;;124.85;34.47;;;6.10;99.90;;;;;;5112804;28;20400;-69
2022/01/13 07:34:37;;;;;;;122.35;36.88;;;6.10;99.90;;;;;;5113349;28;20435;-69
2022/01/13 07:37:03;;;;;;;122.78;34.50;;;6.10;99.90;;;;;;5111826;28;20047;-69
2022/01/13 07:39:29;;;;;;;136.30;37.47;;;6.10;99.90;;;;;;5093026;28;20051;-70
2022/01/13 07:41:54;;;;;;;139.25;37.63;;;6.20;99.90;;;;;;5113775;28;20416;-70
2022/01/13 07:44:20;;;;;;;115.68;34.65;;;6.10;99.90;;;;;;5112564;28;20122;-70
2022/01/13 07:46:46;;;;;;;132.65;36.65;;;6.20;99.90;;;;;;5112258;28;20032;-69
2022/01/13 07:49:12;;;;;;;122.20;35.63;;;6.20;99.90;;;;;;5110094;28;20028;-69
2022/01/13 07:51:37;;;;;;;142.00;35.92;;;6.20;99.90;;;;;;5103745;28;20092;-69
2022/01/13 07:54:03;;;;;;;135.25;37.63;;;6.20;99.90;;;;;;5103619;28;20123;-68
2022/01/13 07:56:29;;;;;;;124.22;35.22;;;6.20;99.90;;;;;;5101517;28;20127;-70
2022/01/13 07:58:55;;;;;;;116.82;34.38;;;6.20;99.90;;;;;;5095462;28;20147;-68
2022/01/13 08:01:21;;;;;;;110.60;33.88;;;6.30;99.90;;;;;;5093976;28;20036;-69
2022/01/13 08:03:47;;;;;;;126.15;35.25;;;6.20;99.90;;;;;;5093346;28;20131;-69
2022/01/13 08:06:13;;;;;;;110.78;32.58;;;6.20;99.90;;;;;;5091618;28;20119;-69
2022/01/13 08:08:39;;;;;;;118.75;34.03;;;6.20;99.90;;;;;;5092143;28;20064;-70
2022/01/13 08:11:07;;;;;;;112.47;33.08;;;6.20;99.90;;;;;;5093206;28;20044;-68
2022/01/13 08:13:32;;;;;;;112.25;33.22;;;6.30;99.90;;;;;;5093699;28;20127;-68
2022/01/13 08:16:02;;;;;;;125.30;35.67;;;6.20;99.90;;;;;;5093114;28;20071;-69
2022/01/13 08:21:12;;;;;;;110.60;34.90;;;6.20;99.90;;;;;;5094876;28;20052;-69
2022/01/13 08:23:38;;;;;;;99.72;31.30;;;6.20;99.90;;;;;;5096906;28;20088;-69
2022/01/13 08:26:03;;;;;;;118.35;33.15;;;6.20;99.90;;;;;;5096899;28;20040;-69
2022/01/13 08:28:30;;;;;;;95.13;30.23;;;6.10;99.90;;;;;;5096657;28;20032;-68
2022/01/13 08:30:59;;;;;;;105.10;31.67;;;6.20;99.90;;;;;;5101277;28;20697;-69
2022/01/13 08:33:25;;;;;;;105.35;31.45;;;6.20;99.90;;;;;;5111229;28;20119;-69
2022/01/13 08:35:51;;;;;;;89.50;29.92;;;6.20;99.90;;;;;;5117121;28;20136;-68
2022/01/13 08:38:19;;;;;;;103.50;31.13;;;6.10;99.90;;;;;;5116892;28;20039;-68
2022/01/13 08:40:49;;;;;;;94.40;30.77;;;6.20;99.90;;;;;;5115686;28;20054;-68
2022/01/13 08:43:16;;;;;;;118.00;33.60;;;6.10;99.90;;;;;;5117059;28;20104;-68
2022/01/13 08:45:42;;;;;;;105.65;30.98;;;6.10;99.90;;;;;;5116630;28;20048;-68
2022/01/13 08:48:08;;;;;;;102.05;32.30;;;6.10;99.90;;;;;;5116806;27;20094;-69
2022/01/13 08:50:34;;;;;;;97.38;31.77;;;6.10;99.90;;;;;;5117084;28;20499;-69
2022/01/13 08:53:00;;;;;;;113.80;32.75;;;6.10;99.90;;;;;;5116874;28;20118;-68
2022/01/13 08:55:26;;;;;;;90.53;30.45;;;6.10;99.90;;;;;;5117240;27;20167;-68
2022/01/13 08:57:52;;;;;;;105.57;33.28;;;6.10;99.90;;;;;;5116218;28;20075;-69
2022/01/13 09:00:18;;;;;;;102.13;30.35;;;6.30;99.90;;;;;;5116557;28;20035;-69
2022/01/13 09:02:44;;;;;;;119.45;33.75;;;6.20;99.90;;;;;;5108078;28;20491;-68
2022/01/13 09:05:13;;;;;;;106.30;33.60;;;6.20;99.90;;;;;;5105653;28;20047;-68
2022/01/13 09:07:39;;;;;;;96.15;31.33;;;6.20;99.90;;;;;;5105539;28;20054;-68
2022/01/13 09:10:06;;;;;;;112.25;35.83;;;6.20;99.90;;;;;;5105136;28;20056;-68
2022/01/13 09:12:32;;;;;;;121.80;32.90;;;6.20;99.90;;;;;;5103312;28;20052;-68
2022/01/13 09:15:02;;;;;;;115.47;33.28;;;6.20;99.90;;;;;;5095990;28;20111;-69
2022/01/13 09:17:33;;;;;;;107.55;33.10;;;6.20;99.90;;;;;;5109840;28;20046;-68
2022/01/13 09:19:58;;;;;;;106.18;34.00;;;6.20;99.90;;;;;;5111315;28;20043;-68
2022/01/13 09:22:24;;;;;;;104.10;34.45;;;6.20;99.90;;;;;;5106071;28;20388;-68
2022/01/13 09:24:49;;;;;;;130.23;36.42;;;6.30;99.90;;;;;;5104302;28;20117;-69
2022/01/13 09:27:15;;;;;;;97.57;32.58;;;6.20;99.90;;;;;;5105315;28;20479;-68
2022/01/13 09:29:41;;;;;;;120.78;38.10;;;6.20;99.90;;;;;;5104940;28;20043;-68
2022/01/13 09:32:09;;;;;;;118.63;36.05;;;6.20;99.90;;;;;;5097941;28;20039;-68
2022/01/13 09:34:35;;;;;;;138.13;38.92;;;6.30;99.90;;;;;;5094396;28;20040;-69
2022/01/13 09:37:01;;;;;;;131.00;35.60;;;6.30;99.90;;;;;;5093677;28;20055;-68
2022/01/13 09:39:27;;;;;;;131.77;38.47;;;6.40;99.90;;;;;;5094110;28;20044;-69
2022/01/13 09:41:54;;;;;;;124.38;34.47;;;6.40;99.90;;;;;;5094020;28;20087;-68
2022/01/13 09:44:20;;;;;;;132.82;39.35;;;6.30;99.90;;;;;;5095210;28;20052;-68
2022/01/13 09:46:47;;;;;;;119.63;36.67;;;6.40;99.90;;;;;;5093904;28;20036;-68
2022/01/13 09:49:12;;;;;;;118.55;38.33;;;6.40;99.90;;;;;;5100375;28;20084;-68
2022/01/13 09:51:44;;;;;;;142.15;39.50;;;6.40;99.90;;;;;;5104009;28;20039;-68
2022/01/13 09:54:11;;;;;;;127.93;37.28;;;6.50;99.90;;;;;;5104333;28;20055;-69
2022/01/13 09:56:37;;;;;;;128.80;37.97;;;6.40;99.90;;;;;;5099505;28;20036;-69
2022/01/13 09:59:04;;;;;;;122.75;35.00;;;6.40;99.90;;;;;;5095428;28;20468;-69
2022/01/13 10:01:30;;;;;;;123.25;38.22;;;6.50;99.90;;;;;;5095299;28;20052;-68
2022/01/13 10:03:56;;;;;;;130.18;37.95;;;6.60;99.90;;;;;;5095192;28;20125;-68
2022/01/13 10:06:22;;;;;;;126.90;37.97;;;6.50;99.90;;;;;;5114282;28;20461;-69
2022/01/13 10:08:58;;;;;;;119.38;35.95;;;6.60;99.90;;;;;;5115699;28;20046;-68
2022/01/13 10:11:36;;;;;;;115.40;36.10;;;6.60;99.90;;;;;;5115315;28;20078;-69
2022/01/13 10:14:05;;;;;;;121.07;37.60;;;6.70;99.90;;;;;;5113948;28;20114;-68
2022/01/13 10:16:32;;;;;;;120.68;36.80;;;6.60;99.90;;;;;;5113382;28;20075;-68
2022/01/13 10:18:57;;;;;;;114.97;36.20;;;6.70;99.90;;;;;;5100893;28;20048;-67
2022/01/13 10:21:23;;;;;;;113.18;36.75;;;6.80;99.90;;;;;;5100406;28;20101;-69
2022/01/13 10:24:09;;;;;;;111.63;36.65;;;6.70;99.90;;;;;;5106005;28;20040;-68
2022/01/13 10:26:37;;;;;;;122.43;36.13;;;6.70;99.90;;;;;;5114983;27;20040;-68
2022/01/13 10:29:07;;;;;;;108.65;36.63;;;6.70;99.90;;;;;;5107313;28;20043;-68
2022/01/13 10:31:46;;;;;;;117.97;35.53;;;6.80;99.90;;;;;;5096564;28;20036;-68
2022/01/13 10:34:27;;;;;;;116.35;37.22;;;6.70;99.90;;;;;;5113419;28;20050;-68
2022/01/13 10:37:13;;;;;;;117.95;35.63;;;6.70;99.90;;;;;;5113306;28;20104;-68
2022/01/13 10:39:57;;;;;;;110.45;35.65;;;6.80;99.90;;;;;;5113544;28;20513;-70
2022/01/13 10:45:39;;;;;;;112.55;36.20;;;6.80;99.90;;;;;;5114725;28;20090;-68
2022/01/13 10:48:08;;;;;;;113.32;36.15;;;6.80;99.90;;;;;;5113127;28;20466;-68
2022/01/13 10:51:05;;;;;;;117.50;37.25;;;6.80;99.90;;;;;;5115171;28;20038;-68
2022/01/13 10:53:40;;;;;;;111.88;34.95;;;6.80;99.90;;;;;;5107842;28;20114;-68
2022/01/13 10:56:11;;;;;;;109.50;34.70;;;6.90;99.90;;;;;;5112969;28;20043;-70
2022/01/13 10:58:47;;;;;;;111.05;36.65;;;6.80;99.90;;;;;;5095771;28;20050;-68
2022/01/13 11:01:14;;;;;;;96.60;34.65;;;6.90;99.90;;;;;;5101113;28;20107;-69
2022/01/13 11:03:42;;;;;;;105.55;36.55;;;6.80;99.90;;;;;;5114336;28;20043;-69
2022/01/13 11:06:10;;;;;;;104.55;35.75;;;6.80;99.90;;;;;;5113735;27;20035;-68
2022/01/13 11:08:44;;;;;;;100.75;35.22;;;6.80;99.90;;;;;;5102423;28;20408;-68
2022/01/13 11:11:21;;;;;;;96.93;34.90;;;6.90;99.90;;;;;;5113070;28;20086;-68
2022/01/13 11:13:56;;;;;;;109.68;36.03;;;6.90;99.90;;;;;;5114329;28;20043;-68
2022/01/13 11:16:23;;;;;;;100.57;36.53;;;6.90;99.90;;;;;;5113858;28;20039;-70
2022/01/13 11:18:49;;;;;;;103.07;36.83;;;6.90;99.90;;;;;;5114520;28;20047;-68
2022/01/13 11:21:15;;;;;;;115.60;37.20;;;6.80;99.90;;;;;;5113159;28;20043;-70
2022/01/13 11:23:44;;;;;;;116.15;37.40;;;6.90;99.90;;;;;;5113592;28;20618;-70
2022/01/13 11:26:12;;;;;;;103.30;34.83;;;6.80;99.90;;;;;;5113494;28;20044;-69
2022/01/13 11:28:39;;;;;;;101.57;35.67;;;6.80;99.90;;;;;;5113949;28;20062;-67
2022/01/13 11:31:08;;;;;;;109.80;36.90;;;6.90;99.90;;;;;;5105070;28;20043;-70
2022/01/13 11:33:36;;;;;;;104.63;36.22;;;6.90;99.90;;;;;;5102625;28;20115;-69
2022/01/13 11:36:03;;;;;;;93.00;34.45;;;7.00;99.90;;;;;;5102702;28;20054;-68
2022/01/13 11:38:30;;;;;;;99.72;33.90;;;7.00;99.90;;;;;;5093219;28;20040;-69
2022/01/13 11:41:04;;;;;;;92.30;32.92;;;7.00;99.90;;;;;;5093055;28;20399;-68
2022/01/13 11:43:39;;;;;;;89.97;32.97;;;7.00;99.90;;;;;;5094385;28;20036;-70
2022/01/13 11:46:20;;;;;;;99.80;33.38;;;6.90;99.90;;;;;;5092440;28;20040;-69
2022/01/13 11:48:57;;;;;;;99.40;34.40;;;7.00;99.90;;;;;;5093058;28;20054;-69
2022/01/13 11:51:23;;;;;;;102.47;33.33;;;7.00;99.90;;;;;;5102216;28;20031;-70
2022/01/13 11:53:59;;;;;;;84.80;34.50;;;7.00;99.90;;;;;;5103147;28;20039;-70
2022/01/13 11:56:26;;;;;;;96.45;32.53;;;7.10;99.90;;;;;;5108697;28;20039;-68
2022/01/13 11:58:53;;;;;;;98.88;33.33;;;7.00;99.90;;;;;;5117569;28;20521;-68
2022/01/13 12:01:21;;;;;;;94.15;34.58;;;7.10;99.90;;;;;;5118607;28;20036;-68
2022/01/13 12:03:52;;;;;;;95.10;34.20;;;7.00;99.90;;;;;;5117914;28;20131;-68
2022/01/13 12:06:41;;;;;;;99.03;33.63;;;7.00;99.90;;;;;;5116036;28;20040;-68
2022/01/13 12:09:09;;;;;;;91.85;34.92;;;7.10;99.90;;;;;;5117808;28;20027;-70
2022/01/13 12:11:51;;;;;;;94.35;33.85;;;7.00;99.90;;;;;;5117546;28;20040;-68
2022/01/13 12:14:27;;;;;;;96.60;35.67;;;7.00;99.90;;;;;;5117694;28;20044;-68
2022/01/13 12:16:58;;;;;;;91.93;31.30;;;7.00;99.90;;;;;;5115791;28;20122;-69
2022/01/13 12:19:37;;;;;;;96.18;34.58;;;7.00;99.90;;;;;;5117486;27;20046;-68
2022/01/13 12:22:14;;;;;;;98.10;32.97;;;7.10;99.90;;;;;;5098104;28;20040;-68
2022/01/13 12:24:58;;;;;;;89.38;34.30;;;7.10;99.90;;;;;;5096668;28;20495;-69
2022/01/13 12:27:39;;;;;;;97.28;36.28;;;7.10;99.90;;;;;;5096506;28;20040;-68
2022/01/13 12:30:09;;;;;;;80.63;32.70;;;7.00;99.90;;;;;;5095882;28;20040;-69
2022/01/13 12:32:48;;;;;;;94.95;34.33;;;7.00;99.90;;;;;;5105648;28;20449;-68
2022/01/13 12:35:34;;;;;;;79.18;30.50;;;7.10;99.90;;;;;;5111891;28;20498;-68
2022/01/13 12:38:06;;;;;;;69.80;28.05;;;7.20;99.90;;;;;;5116793;28;20040;-68
2022/01/13 12:40:40;;;;;;;68.85;29.73;;;7.20;99.90;;;;;;5117289;28;20114;-69
2022/01/13 12:46:12;;;;;;;69.82;29.70;;;7.20;99.90;;;;;;5115415;28;20080;-68
2022/01/13 12:48:41;;;;;;;74.80;30.67;;;7.20;99.90;;;;;;5116944;28;20118;-68
2022/01/13 12:51:12;;;;;;;70.32;28.95;;;7.20;99.90;;;;;;5117047;28;20035;-69
2022/01/13 12:53:38;;;;;;;68.20;30.42;;;7.20;99.90;;;;;;5116709;28;20459;-69
2022/01/13 12:56:12;;;;;;;66.20;28.75;;;7.30;99.90;;;;;;5116369;28;20084;-70
2022/01/13 12:58:43;;;;;;;60.95;28.90;;;7.30;99.90;;;;;;5098232;28;20054;-69
2022/01/13 13:01:11;;;;;;;71.32;31.40;;;7.30;99.90;;;;;;5116530;28;20039;-69
2022/01/13 13:03:37;;;;;;;66.30;30.83;;;7.40;99.90;;;;;;5115837;28;20480;-69
2022/01/13 13:06:11;;;;;;;71.13;29.60;;;7.40;99.90;;;;;;5115814;28;20395;-70
2022/01/13 13:08:36;;;;;;;63.58;30.25;;;7.40;99.90;;;;;;5116470;28;20035;-70